Aeroporto :
LOGIN :

Iscrizione | Disclaimer

   EN    FR    IT 

 










Sommario :    VFR   VFR Marginale   IFR   IFR Intensivo   IFR Molto Intensivo
Visibilità : 
Base nubi : 
>= 8 km
>= 3000ft
5 / 8 km
1000 / 3000 ft
1500m / 5 km
500 / 1000 ft
800 / 1500m
200 / 500 ft
< 800m
< 200 ft
Simboli :   Temporali  Nebbia  Neve Forte  Precipitazioni Forti  Vento > 20 kt
SIGMETs :   Varie  Temporali  Ghiacco  Turbolenza  Onda orograficha  Ceneri Vulcaniche






- Altitudine del aeroporto : 62 ft
- Codice IATA : ARH


ULAA - Talagi

ULTIMO METAR :
  • 310130Z 01002MPS 320V040 9999 BKN025 04/01 Q1026 R08/CLRD68 NOSIG RMK QFE769/1025

METARs OBSOLETI :
  • 310100Z 01002MPS 9999 BKN020 04/00 Q1026 R08/CLRD68 NOSIG RMK QFE769/1025
  • 310030Z 03003MPS 350V060 9999 BKN020 05/00 Q1026 R08/CLRD68 NOSIG RMK QFE769/1025
  • 310000Z 02004MPS 330V050 9999 BKN022 05/01 Q1026 R08/CLRD68 NOSIG RMK QFE769/1025
  • 302330Z 01004MPS 340V040 9999 BKN020 05/01 Q1026 R08/CLRD68 NOSIG RMK QFE769/1025
  • 302300Z 36004MPS 330V040 9999 BKN021 05/02 Q1026 R08/CLRD68 NOSIG RMK QFE769/1025
  • 302230Z 01004MPS 330V050 9999 OVC036 05/01 Q1026 R08/CLRD68 NOSIG RMK QFE769/1025

TAF TAF ULAA
Valido dal 31 a 00 ore il 01 a 00 ore UTC


302300Z 3100/3124 02004MPS 9999 BKN017
TEMPO 3100/3106 35004G10MPS 6000 -SHRA FEW007 BKN015CB
TEMPO 3106/3124 36005G12MPS -SHRA BKN016CB



MetMap, La meteo Aeronautica in un colpo d'occhio ! - Copyright ORBIFLY Dicembre 2007 - Disclaimer

ORBIFLY MET'MAP TEAM :

Programmazione e sviluppo : Alexandra Zaïnal
Concezione : Baudouin d'Aumeries
Aiuto per la programmazione : Marc-Olivier Méhu
Supporto tecnico e logistico : Manuel Goepfert
Aiuto per la traduzione : Arnaldo La Scala

Contatto : metmap@orbifly.com




FONTI E CREDITI :

   NOAA